sensor_id;sensor_type;location;lat;lon;timestamp;P1;durP1;ratioP1;P2;durP2;ratioP2
22904;SDS011;11619;50.140;8.518;2024-01-16T00:00:54;9.65;;;3.08;;
22904;SDS011;11619;50.140;8.518;2024-01-16T00:03:20;7.30;;;3.17;;
22904;SDS011;11619;50.140;8.518;2024-01-16T00:05:47;3.92;;;2.78;;
22904;SDS011;11619;50.140;8.518;2024-01-16T00:08:13;8.55;;;2.85;;
22904;SDS011;11619;50.140;8.518;2024-01-16T00:10:40;7.50;;;3.58;;
22904;SDS011;11619;50.140;8.518;2024-01-16T00:13:06;7.03;;;4.15;;
22904;SDS011;11619;50.140;8.518;2024-01-16T00:15:33;10.90;;;3.78;;
22904;SDS011;11619;50.140;8.518;2024-01-16T00:18:01;7.80;;;3.55;;
22904;SDS011;11619;50.140;8.518;2024-01-16T00:20:28;5.35;;;3.58;;
22904;SDS011;11619;50.140;8.518;2024-01-16T00:22:54;5.53;;;3.35;;
22904;SDS011;11619;50.140;8.518;2024-01-16T00:25:21;9.38;;;4.13;;
22904;SDS011;11619;50.140;8.518;2024-01-16T00:27:47;7.30;;;3.83;;
22904;SDS011;11619;50.140;8.518;2024-01-16T00:30:14;8.05;;;3.95;;
22904;SDS011;11619;50.140;8.518;2024-01-16T00:32:40;8.75;;;4.50;;
22904;SDS011;11619;50.140;8.518;2024-01-16T00:35:07;4.15;;;3.80;;
22904;SDS011;11619;50.140;8.518;2024-01-16T00:37:35;10.82;;;3.83;;
22904;SDS011;11619;50.140;8.518;2024-01-16T00:40:02;7.43;;;4.70;;
22904;SDS011;11619;50.140;8.518;2024-01-16T00:42:30;5.68;;;3.97;;
22904;SDS011;11619;50.140;8.518;2024-01-16T00:44:58;9.52;;;4.05;;
22904;SDS011;11619;50.140;8.518;2024-01-16T00:47:24;4.82;;;3.58;;
22904;SDS011;11619;50.140;8.518;2024-01-16T00:49:51;7.90;;;3.90;;
22904;SDS011;11619;50.140;8.518;2024-01-16T00:52:17;8.82;;;4.05;;
22904;SDS011;11619;50.140;8.518;2024-01-16T00:54:43;7.28;;;4.20;;
22904;SDS011;11619;50.140;8.518;2024-01-16T00:57:10;5.07;;;3.55;;
22904;SDS011;11619;50.140;8.518;2024-01-16T00:59:36;9.52;;;3.72;;
22904;SDS011;11619;50.140;8.518;2024-01-16T01:02:03;9.65;;;4.25;;
22904;SDS011;11619;50.140;8.518;2024-01-16T01:04:32;7.75;;;3.78;;
22904;SDS011;11619;50.140;8.518;2024-01-16T01:07:01;5.88;;;4.10;;
22904;SDS011;11619;50.140;8.518;2024-01-16T01:09:32;7.80;;;4.13;;
22904;SDS011;11619;50.140;8.518;2024-01-16T01:11:58;5.80;;;3.88;;
22904;SDS011;11619;50.140;8.518;2024-01-16T01:14:25;6.80;;;3.90;;
22904;SDS011;11619;50.140;8.518;2024-01-16T01:16:53;6.25;;;3.78;;
22904;SDS011;11619;50.140;8.518;2024-01-16T01:19:19;7.40;;;4.00;;
22904;SDS011;11619;50.140;8.518;2024-01-16T01:21:46;8.20;;;4.53;;
22904;SDS011;11619;50.140;8.518;2024-01-16T01:24:12;6.70;;;4.30;;
22904;SDS011;11619;50.140;8.518;2024-01-16T01:26:38;9.20;;;3.75;;
22904;SDS011;11619;50.140;8.518;2024-01-16T01:29:05;6.35;;;4.15;;
22904;SDS011;11619;50.140;8.518;2024-01-16T01:31:31;8.45;;;4.10;;
22904;SDS011;11619;50.140;8.518;2024-01-16T01:33:58;5.38;;;3.88;;
22904;SDS011;11619;50.140;8.518;2024-01-16T01:36:24;6.65;;;3.58;;
22904;SDS011;11619;50.140;8.518;2024-01-16T01:38:51;7.25;;;4.20;;
22904;SDS011;11619;50.140;8.518;2024-01-16T01:41:17;6.90;;;4.25;;
22904;SDS011;11619;50.140;8.518;2024-01-16T01:43:44;7.80;;;4.22;;
22904;SDS011;11619;50.140;8.518;2024-01-16T01:48:44;7.10;;;4.00;;
22904;SDS011;11619;50.140;8.518;2024-01-16T01:51:13;7.57;;;4.97;;
22904;SDS011;11619;50.140;8.518;2024-01-16T01:53:42;7.25;;;4.32;;
22904;SDS011;11619;50.140;8.518;2024-01-16T01:56:11;8.13;;;4.38;;
22904;SDS011;11619;50.140;8.518;2024-01-16T01:58:43;8.02;;;4.50;;
22904;SDS011;11619;50.140;8.518;2024-01-16T02:01:10;7.70;;;4.90;;
22904;SDS011;11619;50.140;8.518;2024-01-16T02:03:41;7.97;;;4.45;;
22904;SDS011;11619;50.140;8.518;2024-01-16T02:06:10;8.77;;;5.22;;
22904;SDS011;11619;50.140;8.518;2024-01-16T02:08:39;8.38;;;4.90;;
22904;SDS011;11619;50.140;8.518;2024-01-16T02:11:06;10.85;;;4.97;;
22904;SDS011;11619;50.140;8.518;2024-01-16T02:13:32;10.90;;;5.28;;
22904;SDS011;11619;50.140;8.518;2024-01-16T02:15:59;8.18;;;5.13;;
22904;SDS011;11619;50.140;8.518;2024-01-16T02:18:27;9.30;;;5.13;;
22904;SDS011;11619;50.140;8.518;2024-01-16T02:20:53;12.13;;;5.25;;
22904;SDS011;11619;50.140;8.518;2024-01-16T02:23:30;9.77;;;4.93;;
22904;SDS011;11619;50.140;8.518;2024-01-16T02:25:57;6.97;;;5.18;;
22904;SDS011;11619;50.140;8.518;2024-01-16T02:28:24;14.90;;;6.03;;
22904;SDS011;11619;50.140;8.518;2024-01-16T02:30:50;9.00;;;4.97;;
22904;SDS011;11619;50.140;8.518;2024-01-16T02:33:17;9.57;;;5.40;;
22904;SDS011;11619;50.140;8.518;2024-01-16T02:35:44;9.32;;;5.38;;
22904;SDS011;11619;50.140;8.518;2024-01-16T02:38:11;7.55;;;5.18;;
22904;SDS011;11619;50.140;8.518;2024-01-16T02:40:37;11.50;;;5.53;;
22904;SDS011;11619;50.140;8.518;2024-01-16T02:43:04;7.57;;;5.68;;
22904;SDS011;11619;50.140;8.518;2024-01-16T02:45:30;10.43;;;4.60;;
22904;SDS011;11619;50.140;8.518;2024-01-16T02:47:56;9.95;;;5.70;;
22904;SDS011;11619;50.140;8.518;2024-01-16T02:50:23;9.18;;;5.40;;
22904;SDS011;11619;50.140;8.518;2024-01-16T02:52:50;7.53;;;5.20;;
22904;SDS011;11619;50.140;8.518;2024-01-16T02:55:17;7.90;;;5.68;;
22904;SDS011;11619;50.140;8.518;2024-01-16T02:57:43;11.02;;;5.40;;
22904;SDS011;11619;50.140;8.518;2024-01-16T03:00:10;11.48;;;5.72;;
22904;SDS011;11619;50.140;8.518;2024-01-16T03:02:37;7.85;;;5.85;;
22904;SDS011;11619;50.140;8.518;2024-01-16T03:05:04;10.65;;;5.80;;
22904;SDS011;11619;50.140;8.518;2024-01-16T03:07:34;11.10;;;5.20;;
22904;SDS011;11619;50.140;8.518;2024-01-16T03:10:00;8.68;;;5.38;;
22904;SDS011;11619;50.140;8.518;2024-01-16T03:12:27;6.20;;;5.28;;
22904;SDS011;11619;50.140;8.518;2024-01-16T03:14:53;10.27;;;5.82;;
22904;SDS011;11619;50.140;8.518;2024-01-16T03:17:20;10.18;;;5.80;;
22904;SDS011;11619;50.140;8.518;2024-01-16T03:19:47;9.43;;;5.78;;
22904;SDS011;11619;50.140;8.518;2024-01-16T03:22:14;10.23;;;5.53;;
22904;SDS011;11619;50.140;8.518;2024-01-16T03:24:40;9.60;;;5.90;;
22904;SDS011;11619;50.140;8.518;2024-01-16T03:27:06;9.32;;;5.93;;
22904;SDS011;11619;50.140;8.518;2024-01-16T03:29:33;14.75;;;6.22;;
22904;SDS011;11619;50.140;8.518;2024-01-16T03:32:00;13.93;;;5.60;;
22904;SDS011;11619;50.140;8.518;2024-01-16T03:34:27;15.60;;;5.60;;
22904;SDS011;11619;50.140;8.518;2024-01-16T03:36:54;9.75;;;5.57;;
22904;SDS011;11619;50.140;8.518;2024-01-16T03:39:20;8.23;;;5.18;;
22904;SDS011;11619;50.140;8.518;2024-01-16T03:41:47;9.32;;;5.40;;
22904;SDS011;11619;50.140;8.518;2024-01-16T03:44:13;9.32;;;5.72;;
22904;SDS011;11619;50.140;8.518;2024-01-16T03:46:40;9.70;;;5.45;;
22904;SDS011;11619;50.140;8.518;2024-01-16T03:49:06;7.63;;;5.22;;
22904;SDS011;11619;50.140;8.518;2024-01-16T03:51:32;11.32;;;5.55;;
22904;SDS011;11619;50.140;8.518;2024-01-16T03:53:59;9.65;;;5.88;;
22904;SDS011;11619;50.140;8.518;2024-01-16T03:56:25;9.05;;;5.38;;
22904;SDS011;11619;50.140;8.518;2024-01-16T03:58:52;13.32;;;5.57;;
22904;SDS011;11619;50.140;8.518;2024-01-16T04:01:18;9.27;;;5.20;;
22904;SDS011;11619;50.140;8.518;2024-01-16T04:03:56;9.23;;;5.30;;
22904;SDS011;11619;50.140;8.518;2024-01-16T04:06:22;10.57;;;5.65;;
22904;SDS011;11619;50.140;8.518;2024-01-16T04:08:49;8.85;;;5.50;;
22904;SDS011;11619;50.140;8.518;2024-01-16T04:11:15;8.93;;;5.15;;
22904;SDS011;11619;50.140;8.518;2024-01-16T04:13:42;10.45;;;5.15;;
22904;SDS011;11619;50.140;8.518;2024-01-16T04:16:08;7.55;;;5.10;;
22904;SDS011;11619;50.140;8.518;2024-01-16T04:18:39;11.90;;;5.32;;
22904;SDS011;11619;50.140;8.518;2024-01-16T04:21:06;11.20;;;5.78;;
22904;SDS011;11619;50.140;8.518;2024-01-16T04:23:33;12.35;;;5.38;;
22904;SDS011;11619;50.140;8.518;2024-01-16T04:25:59;9.60;;;4.93;;
22904;SDS011;11619;50.140;8.518;2024-01-16T04:28:26;8.88;;;4.68;;
22904;SDS011;11619;50.140;8.518;2024-01-16T04:30:52;10.02;;;5.10;;
22904;SDS011;11619;50.140;8.518;2024-01-16T04:33:19;8.68;;;5.15;;
22904;SDS011;11619;50.140;8.518;2024-01-16T04:35:46;11.93;;;5.03;;
22904;SDS011;11619;50.140;8.518;2024-01-16T04:38:13;8.50;;;5.45;;
22904;SDS011;11619;50.140;8.518;2024-01-16T04:40:39;9.90;;;5.03;;
22904;SDS011;11619;50.140;8.518;2024-01-16T04:43:06;8.82;;;5.25;;
22904;SDS011;11619;50.140;8.518;2024-01-16T04:45:33;8.85;;;5.28;;
22904;SDS011;11619;50.140;8.518;2024-01-16T04:47:59;11.85;;;5.40;;
22904;SDS011;11619;50.140;8.518;2024-01-16T04:50:26;9.05;;;4.88;;
22904;SDS011;11619;50.140;8.518;2024-01-16T04:52:58;8.32;;;5.28;;
22904;SDS011;11619;50.140;8.518;2024-01-16T04:55:28;8.57;;;4.55;;
22904;SDS011;11619;50.140;8.518;2024-01-16T04:57:55;9.15;;;4.57;;
22904;SDS011;11619;50.140;8.518;2024-01-16T05:00:22;8.82;;;5.65;;
22904;SDS011;11619;50.140;8.518;2024-01-16T05:02:49;8.07;;;5.22;;
22904;SDS011;11619;50.140;8.518;2024-01-16T05:05:16;7.82;;;4.82;;
22904;SDS011;11619;50.140;8.518;2024-01-16T05:07:42;9.82;;;4.93;;
22904;SDS011;11619;50.140;8.518;2024-01-16T05:10:09;9.05;;;4.45;;
22904;SDS011;11619;50.140;8.518;2024-01-16T05:12:39;8.52;;;5.13;;
22904;SDS011;11619;50.140;8.518;2024-01-16T05:15:06;6.75;;;4.82;;
22904;SDS011;11619;50.140;8.518;2024-01-16T05:17:33;12.80;;;5.45;;
22904;SDS011;11619;50.140;8.518;2024-01-16T05:20:00;7.63;;;4.90;;
22904;SDS011;11619;50.140;8.518;2024-01-16T05:22:29;9.13;;;5.10;;
22904;SDS011;11619;50.140;8.518;2024-01-16T05:24:56;9.50;;;4.90;;
22904;SDS011;11619;50.140;8.518;2024-01-16T05:27:22;8.48;;;5.47;;
22904;SDS011;11619;50.140;8.518;2024-01-16T05:29:49;6.55;;;4.85;;
22904;SDS011;11619;50.140;8.518;2024-01-16T05:32:16;7.40;;;4.88;;
22904;SDS011;11619;50.140;8.518;2024-01-16T05:34:52;9.85;;;5.57;;
22904;SDS011;11619;50.140;8.518;2024-01-16T05:37:19;9.98;;;5.20;;
22904;SDS011;11619;50.140;8.518;2024-01-16T05:39:45;12.88;;;5.80;;
22904;SDS011;11619;50.140;8.518;2024-01-16T05:42:11;8.05;;;5.40;;
22904;SDS011;11619;50.140;8.518;2024-01-16T05:44:38;8.13;;;5.20;;
22904;SDS011;11619;50.140;8.518;2024-01-16T05:47:05;11.55;;;5.40;;
22904;SDS011;11619;50.140;8.518;2024-01-16T05:49:32;7.97;;;5.78;;
22904;SDS011;11619;50.140;8.518;2024-01-16T05:51:59;11.10;;;5.55;;
22904;SDS011;11619;50.140;8.518;2024-01-16T05:54:25;9.05;;;5.70;;
22904;SDS011;11619;50.140;8.518;2024-01-16T05:56:51;9.77;;;6.07;;
22904;SDS011;11619;50.140;8.518;2024-01-16T05:59:18;10.07;;;5.70;;
22904;SDS011;11619;50.140;8.518;2024-01-16T06:01:44;10.75;;;5.68;;
22904;SDS011;11619;50.140;8.518;2024-01-16T06:04:11;9.95;;;5.57;;
22904;SDS011;11619;50.140;8.518;2024-01-16T06:06:40;9.77;;;5.05;;
22904;SDS011;11619;50.140;8.518;2024-01-16T06:09:10;8.20;;;5.43;;
22904;SDS011;11619;50.140;8.518;2024-01-16T06:11:40;8.75;;;4.35;;
22904;SDS011;11619;50.140;8.518;2024-01-16T06:14:09;15.65;;;5.10;;
22904;SDS011;11619;50.140;8.518;2024-01-16T06:16:36;9.38;;;4.50;;
22904;SDS011;11619;50.140;8.518;2024-01-16T06:19:02;12.35;;;4.88;;
22904;SDS011;11619;50.140;8.518;2024-01-16T06:21:29;14.27;;;5.38;;
22904;SDS011;11619;50.140;8.518;2024-01-16T06:23:56;11.77;;;4.68;;
22904;SDS011;11619;50.140;8.518;2024-01-16T06:26:22;12.82;;;5.30;;
22904;SDS011;11619;50.140;8.518;2024-01-16T06:28:49;10.90;;;4.28;;
22904;SDS011;11619;50.140;8.518;2024-01-16T06:31:16;8.65;;;4.65;;
22904;SDS011;11619;50.140;8.518;2024-01-16T06:33:42;9.45;;;5.45;;
22904;SDS011;11619;50.140;8.518;2024-01-16T06:36:09;10.93;;;4.38;;
22904;SDS011;11619;50.140;8.518;2024-01-16T06:38:37;13.80;;;5.28;;
22904;SDS011;11619;50.140;8.518;2024-01-16T06:41:04;11.73;;;5.97;;
22904;SDS011;11619;50.140;8.518;2024-01-16T06:43:31;12.75;;;5.53;;
22904;SDS011;11619;50.140;8.518;2024-01-16T06:45:58;14.35;;;6.07;;
22904;SDS011;11619;50.140;8.518;2024-01-16T06:48:25;10.40;;;6.28;;
22904;SDS011;11619;50.140;8.518;2024-01-16T06:50:52;9.13;;;6.25;;
22904;SDS011;11619;50.140;8.518;2024-01-16T06:53:18;15.95;;;6.25;;
22904;SDS011;11619;50.140;8.518;2024-01-16T06:55:45;10.05;;;6.25;;
22904;SDS011;11619;50.140;8.518;2024-01-16T06:58:11;11.73;;;6.65;;
22904;SDS011;11619;50.140;8.518;2024-01-16T07:00:38;15.15;;;6.68;;
22904;SDS011;11619;50.140;8.518;2024-01-16T07:03:07;9.00;;;6.07;;
22904;SDS011;11619;50.140;8.518;2024-01-16T07:05:34;12.90;;;6.18;;
22904;SDS011;11619;50.140;8.518;2024-01-16T07:08:00;9.10;;;6.93;;
22904;SDS011;11619;50.140;8.518;2024-01-16T07:10:27;16.40;;;6.70;;
22904;SDS011;11619;50.140;8.518;2024-01-16T07:12:53;11.20;;;6.72;;
22904;SDS011;11619;50.140;8.518;2024-01-16T07:15:21;15.57;;;6.70;;
22904;SDS011;11619;50.140;8.518;2024-01-16T07:17:47;13.13;;;7.88;;
22904;SDS011;11619;50.140;8.518;2024-01-16T07:20:14;10.43;;;6.47;;
22904;SDS011;11619;50.140;8.518;2024-01-16T07:22:40;10.52;;;6.72;;
22904;SDS011;11619;50.140;8.518;2024-01-16T07:25:07;13.75;;;6.45;;
22904;SDS011;11619;50.140;8.518;2024-01-16T07:27:34;9.07;;;7.00;;
22904;SDS011;11619;50.140;8.518;2024-01-16T07:30:00;12.85;;;7.85;;
22904;SDS011;11619;50.140;8.518;2024-01-16T07:32:27;18.30;;;7.40;;
22904;SDS011;11619;50.140;8.518;2024-01-16T07:34:57;10.70;;;6.72;;
22904;SDS011;11619;50.140;8.518;2024-01-16T07:37:24;15.15;;;7.18;;
22904;SDS011;11619;50.140;8.518;2024-01-16T07:39:50;12.32;;;7.15;;
22904;SDS011;11619;50.140;8.518;2024-01-16T07:42:17;10.55;;;6.97;;
22904;SDS011;11619;50.140;8.518;2024-01-16T07:44:43;12.82;;;7.03;;
22904;SDS011;11619;50.140;8.518;2024-01-16T07:47:10;12.38;;;7.25;;
22904;SDS011;11619;50.140;8.518;2024-01-16T07:49:36;10.25;;;7.43;;
22904;SDS011;11619;50.140;8.518;2024-01-16T07:52:03;13.05;;;7.00;;
22904;SDS011;11619;50.140;8.518;2024-01-16T07:54:29;14.18;;;7.18;;
22904;SDS011;11619;50.140;8.518;2024-01-16T07:56:57;13.52;;;7.50;;
22904;SDS011;11619;50.140;8.518;2024-01-16T07:59:24;12.82;;;7.30;;
22904;SDS011;11619;50.140;8.518;2024-01-16T08:01:50;13.45;;;7.45;;
22904;SDS011;11619;50.140;8.518;2024-01-16T08:04:17;14.90;;;7.47;;
22904;SDS011;11619;50.140;8.518;2024-01-16T08:06:43;12.73;;;6.60;;
22904;SDS011;11619;50.140;8.518;2024-01-16T08:09:11;10.98;;;7.07;;
22904;SDS011;11619;50.140;8.518;2024-01-16T08:11:38;10.55;;;6.47;;
22904;SDS011;11619;50.140;8.518;2024-01-16T08:14:05;11.20;;;7.13;;
22904;SDS011;11619;50.140;8.518;2024-01-16T08:16:32;15.18;;;7.45;;
22904;SDS011;11619;50.140;8.518;2024-01-16T08:18:59;13.18;;;7.10;;
22904;SDS011;11619;50.140;8.518;2024-01-16T08:21:25;10.75;;;6.60;;
22904;SDS011;11619;50.140;8.518;2024-01-16T08:23:52;10.98;;;6.90;;
22904;SDS011;11619;50.140;8.518;2024-01-16T08:26:19;12.07;;;6.60;;
22904;SDS011;11619;50.140;8.518;2024-01-16T08:28:46;15.25;;;6.70;;
22904;SDS011;11619;50.140;8.518;2024-01-16T08:31:12;10.63;;;6.80;;
22904;SDS011;11619;50.140;8.518;2024-01-16T08:33:39;8.75;;;6.50;;
22904;SDS011;11619;50.140;8.518;2024-01-16T08:36:13;15.88;;;7.57;;
22904;SDS011;11619;50.140;8.518;2024-01-16T08:38:41;11.00;;;7.50;;
22904;SDS011;11619;50.140;8.518;2024-01-16T08:41:09;10.48;;;6.75;;
22904;SDS011;11619;50.140;8.518;2024-01-16T08:43:36;12.65;;;6.75;;
22904;SDS011;11619;50.140;8.518;2024-01-16T08:46:02;12.38;;;6.95;;
22904;SDS011;11619;50.140;8.518;2024-01-16T08:48:29;11.70;;;6.78;;
22904;SDS011;11619;50.140;8.518;2024-01-16T08:50:56;10.70;;;6.50;;
22904;SDS011;11619;50.140;8.518;2024-01-16T08:53:23;13.52;;;6.70;;
22904;SDS011;11619;50.140;8.518;2024-01-16T08:55:49;11.13;;;6.90;;
22904;SDS011;11619;50.140;8.518;2024-01-16T08:58:16;13.10;;;6.95;;
22904;SDS011;11619;50.140;8.518;2024-01-16T09:00:42;13.43;;;7.15;;
22904;SDS011;11619;50.140;8.518;2024-01-16T09:03:09;8.93;;;6.30;;
22904;SDS011;11619;50.140;8.518;2024-01-16T09:05:37;10.52;;;7.38;;
22904;SDS011;11619;50.140;8.518;2024-01-16T09:08:05;11.65;;;7.53;;
22904;SDS011;11619;50.140;8.518;2024-01-16T09:10:34;16.25;;;8.13;;
22904;SDS011;11619;50.140;8.518;2024-01-16T09:13:01;12.10;;;7.55;;
22904;SDS011;11619;50.140;8.518;2024-01-16T09:15:27;12.82;;;6.97;;
22904;SDS011;11619;50.140;8.518;2024-01-16T09:17:54;9.27;;;7.43;;
22904;SDS011;11619;50.140;8.518;2024-01-16T09:20:21;10.80;;;7.60;;
22904;SDS011;11619;50.140;8.518;2024-01-16T09:22:47;12.27;;;7.05;;
22904;SDS011;11619;50.140;8.518;2024-01-16T09:25:14;13.10;;;7.65;;
22904;SDS011;11619;50.140;8.518;2024-01-16T09:27:43;13.27;;;7.72;;
22904;SDS011;11619;50.140;8.518;2024-01-16T09:30:10;9.75;;;7.40;;
22904;SDS011;11619;50.140;8.518;2024-01-16T09:32:38;14.60;;;8.05;;
22904;SDS011;11619;50.140;8.518;2024-01-16T09:35:05;12.68;;;7.75;;
22904;SDS011;11619;50.140;8.518;2024-01-16T09:37:35;11.70;;;7.85;;
22904;SDS011;11619;50.140;8.518;2024-01-16T09:40:01;14.05;;;8.27;;
22904;SDS011;11619;50.140;8.518;2024-01-16T09:42:28;10.18;;;7.43;;
22904;SDS011;11619;50.140;8.518;2024-01-16T09:44:55;13.23;;;8.57;;
22904;SDS011;11619;50.140;8.518;2024-01-16T09:47:21;15.90;;;11.30;;
22904;SDS011;11619;50.140;8.518;2024-01-16T09:49:48;18.98;;;9.63;;
22904;SDS011;11619;50.140;8.518;2024-01-16T09:52:15;12.80;;;8.27;;
22904;SDS011;11619;50.140;8.518;2024-01-16T09:54:41;14.75;;;7.60;;
22904;SDS011;11619;50.140;8.518;2024-01-16T09:57:08;11.73;;;7.78;;
22904;SDS011;11619;50.140;8.518;2024-01-16T09:59:38;10.60;;;7.32;;
22904;SDS011;11619;50.140;8.518;2024-01-16T10:02:07;15.57;;;8.75;;
22904;SDS011;11619;50.140;8.518;2024-01-16T10:04:34;15.75;;;8.68;;
22904;SDS011;11619;50.140;8.518;2024-01-16T10:07:01;13.98;;;8.82;;
22904;SDS011;11619;50.140;8.518;2024-01-16T10:09:28;14.23;;;8.38;;
22904;SDS011;11619;50.140;8.518;2024-01-16T10:11:55;16.38;;;9.45;;
22904;SDS011;11619;50.140;8.518;2024-01-16T10:14:22;14.07;;;8.85;;
22904;SDS011;11619;50.140;8.518;2024-01-16T10:16:56;11.68;;;8.75;;
22904;SDS011;11619;50.140;8.518;2024-01-16T10:19:31;13.90;;;9.20;;
22904;SDS011;11619;50.140;8.518;2024-01-16T10:22:13;13.68;;;9.40;;
22904;SDS011;11619;50.140;8.518;2024-01-16T10:24:56;12.90;;;8.88;;
22904;SDS011;11619;50.140;8.518;2024-01-16T10:27:30;25.50;;;9.88;;
22904;SDS011;11619;50.140;8.518;2024-01-16T10:29:57;13.82;;;9.20;;
22904;SDS011;11619;50.140;8.518;2024-01-16T10:32:28;14.45;;;8.90;;
22904;SDS011;11619;50.140;8.518;2024-01-16T10:35:02;12.43;;;8.52;;
22904;SDS011;11619;50.140;8.518;2024-01-16T10:37:52;17.05;;;10.25;;
22904;SDS011;11619;50.140;8.518;2024-01-16T10:40:18;14.38;;;9.02;;
22904;SDS011;11619;50.140;8.518;2024-01-16T10:43:03;19.13;;;9.48;;
22904;SDS011;11619;50.140;8.518;2024-01-16T10:45:33;14.40;;;9.13;;
22904;SDS011;11619;50.140;8.518;2024-01-16T10:48:03;14.10;;;8.82;;
22904;SDS011;11619;50.140;8.518;2024-01-16T10:50:31;20.63;;;9.48;;
22904;SDS011;11619;50.140;8.518;2024-01-16T10:52:59;21.75;;;9.63;;
22904;SDS011;11619;50.140;8.518;2024-01-16T10:55:27;13.77;;;8.65;;
22904;SDS011;11619;50.140;8.518;2024-01-16T10:57:56;15.23;;;9.10;;
22904;SDS011;11619;50.140;8.518;2024-01-16T11:00:23;13.73;;;8.95;;
22904;SDS011;11619;50.140;8.518;2024-01-16T11:03:07;20.65;;;10.15;;
22904;SDS011;11619;50.140;8.518;2024-01-16T11:05:36;16.15;;;9.52;;
22904;SDS011;11619;50.140;8.518;2024-01-16T11:08:03;14.05;;;8.95;;
22904;SDS011;11619;50.140;8.518;2024-01-16T11:10:31;11.75;;;8.82;;
22904;SDS011;11619;50.140;8.518;2024-01-16T11:13:01;14.55;;;8.70;;
22904;SDS011;11619;50.140;8.518;2024-01-16T11:15:31;12.48;;;8.35;;
22904;SDS011;11619;50.140;8.518;2024-01-16T11:17:59;13.48;;;9.38;;
22904;SDS011;11619;50.140;8.518;2024-01-16T11:20:26;16.00;;;8.32;;
22904;SDS011;11619;50.140;8.518;2024-01-16T11:23:13;10.55;;;7.63;;
22904;SDS011;11619;50.140;8.518;2024-01-16T11:25:40;15.20;;;8.85;;
22904;SDS011;11619;50.140;8.518;2024-01-16T11:28:10;13.50;;;8.82;;
22904;SDS011;11619;50.140;8.518;2024-01-16T11:30:38;11.50;;;8.35;;
22904;SDS011;11619;50.140;8.518;2024-01-16T11:33:05;11.15;;;8.07;;
22904;SDS011;11619;50.140;8.518;2024-01-16T11:35:36;15.90;;;7.63;;
22904;SDS011;11619;50.140;8.518;2024-01-16T11:38:04;12.80;;;7.70;;
22904;SDS011;11619;50.140;8.518;2024-01-16T11:40:32;10.82;;;7.60;;
22904;SDS011;11619;50.140;8.518;2024-01-16T11:42:59;10.25;;;7.38;;
22904;SDS011;11619;50.140;8.518;2024-01-16T11:46:06;15.15;;;8.10;;
22904;SDS011;11619;50.140;8.518;2024-01-16T11:48:33;11.75;;;7.10;;
22904;SDS011;11619;50.140;8.518;2024-01-16T11:51:00;10.70;;;6.93;;
22904;SDS011;11619;50.140;8.518;2024-01-16T11:53:50;12.27;;;6.90;;
22904;SDS011;11619;50.140;8.518;2024-01-16T12:04:40;10.55;;;6.13;;
22904;SDS011;11619;50.140;8.518;2024-01-16T12:07:08;7.38;;;6.18;;
22904;SDS011;11619;50.140;8.518;2024-01-16T12:09:34;10.27;;;5.85;;
22904;SDS011;11619;50.140;8.518;2024-01-16T12:12:01;16.23;;;7.35;;
22904;SDS011;11619;50.140;8.518;2024-01-16T12:14:29;11.82;;;7.57;;
22904;SDS011;11619;50.140;8.518;2024-01-16T12:17:12;13.93;;;7.07;;
22904;SDS011;11619;50.140;8.518;2024-01-16T12:19:39;9.53;;;6.67;;
22904;SDS011;11619;50.140;8.518;2024-01-16T12:22:09;9.55;;;6.75;;
22904;SDS011;11619;50.140;8.518;2024-01-16T12:24:38;14.27;;;7.13;;
22904;SDS011;11619;50.140;8.518;2024-01-16T12:27:04;14.48;;;6.78;;
22904;SDS011;11619;50.140;8.518;2024-01-16T12:29:32;11.98;;;7.10;;
22904;SDS011;11619;50.140;8.518;2024-01-16T12:32:08;9.88;;;6.25;;
22904;SDS011;11619;50.140;8.518;2024-01-16T12:34:42;9.07;;;5.75;;
22904;SDS011;11619;50.140;8.518;2024-01-16T12:37:12;13.27;;;6.50;;
22904;SDS011;11619;50.140;8.518;2024-01-16T12:39:39;14.63;;;7.95;;
22904;SDS011;11619;50.140;8.518;2024-01-16T12:42:08;12.23;;;6.90;;
22904;SDS011;11619;50.140;8.518;2024-01-16T12:44:39;12.38;;;6.38;;
22904;SDS011;11619;50.140;8.518;2024-01-16T12:47:05;13.95;;;6.60;;
22904;SDS011;11619;50.140;8.518;2024-01-16T12:49:32;7.35;;;5.95;;
22904;SDS011;11619;50.140;8.518;2024-01-16T12:54:44;12.38;;;6.07;;
22904;SDS011;11619;50.140;8.518;2024-01-16T12:57:16;10.05;;;5.60;;
22904;SDS011;11619;50.140;8.518;2024-01-16T12:59:43;10.85;;;6.63;;
22904;SDS011;11619;50.140;8.518;2024-01-16T13:02:09;11.43;;;5.88;;
22904;SDS011;11619;50.140;8.518;2024-01-16T13:04:37;10.95;;;5.65;;
22904;SDS011;11619;50.140;8.518;2024-01-16T13:07:04;7.75;;;5.88;;
22904;SDS011;11619;50.140;8.518;2024-01-16T13:09:31;7.72;;;4.82;;
22904;SDS011;11619;50.140;8.518;2024-01-16T13:11:58;9.40;;;4.80;;
22904;SDS011;11619;50.140;8.518;2024-01-16T13:14:25;7.90;;;4.53;;
22904;SDS011;11619;50.140;8.518;2024-01-16T13:16:52;10.65;;;4.80;;
22904;SDS011;11619;50.140;8.518;2024-01-16T13:19:22;11.32;;;5.03;;
22904;SDS011;11619;50.140;8.518;2024-01-16T13:21:49;9.02;;;4.60;;
22904;SDS011;11619;50.140;8.518;2024-01-16T13:24:16;8.38;;;4.78;;
22904;SDS011;11619;50.140;8.518;2024-01-16T13:26:44;11.68;;;5.15;;
22904;SDS011;11619;50.140;8.518;2024-01-16T13:29:11;8.45;;;4.75;;
22904;SDS011;11619;50.140;8.518;2024-01-16T13:31:38;9.77;;;5.07;;
22904;SDS011;11619;50.140;8.518;2024-01-16T13:34:05;9.05;;;4.80;;
22904;SDS011;11619;50.140;8.518;2024-01-16T13:36:31;13.18;;;4.95;;
22904;SDS011;11619;50.140;8.518;2024-01-16T13:39:18;10.95;;;5.22;;
22904;SDS011;11619;50.140;8.518;2024-01-16T13:41:46;10.52;;;6.00;;
22904;SDS011;11619;50.140;8.518;2024-01-16T13:44:13;9.48;;;5.43;;
22904;SDS011;11619;50.140;8.518;2024-01-16T13:46:40;10.25;;;5.43;;
22904;SDS011;11619;50.140;8.518;2024-01-16T13:49:26;17.30;;;5.90;;
22904;SDS011;11619;50.140;8.518;2024-01-16T13:51:53;11.70;;;6.00;;
22904;SDS011;11619;50.140;8.518;2024-01-16T13:54:19;12.35;;;6.32;;
22904;SDS011;11619;50.140;8.518;2024-01-16T13:56:46;10.05;;;6.00;;
22904;SDS011;11619;50.140;8.518;2024-01-16T13:59:31;13.57;;;6.22;;
22904;SDS011;11619;50.140;8.518;2024-01-16T14:01:58;10.82;;;5.78;;
22904;SDS011;11619;50.140;8.518;2024-01-16T14:04:24;10.20;;;5.38;;
22904;SDS011;11619;50.140;8.518;2024-01-16T14:06:51;14.05;;;6.32;;
22904;SDS011;11619;50.140;8.518;2024-01-16T14:09:37;13.10;;;6.05;;
22904;SDS011;11619;50.140;8.518;2024-01-16T14:12:04;8.23;;;5.57;;
22904;SDS011;11619;50.140;8.518;2024-01-16T14:14:34;13.57;;;6.05;;
22904;SDS011;11619;50.140;8.518;2024-01-16T14:17:01;13.05;;;6.35;;
22904;SDS011;11619;50.140;8.518;2024-01-16T14:19:28;15.60;;;7.10;;
22904;SDS011;11619;50.140;8.518;2024-01-16T14:21:57;20.90;;;6.95;;
22904;SDS011;11619;50.140;8.518;2024-01-16T14:24:24;8.93;;;6.35;;
22904;SDS011;11619;50.140;8.518;2024-01-16T14:26:50;10.48;;;6.97;;
22904;SDS011;11619;50.140;8.518;2024-01-16T14:29:17;12.20;;;6.50;;
22904;SDS011;11619;50.140;8.518;2024-01-16T14:31:44;11.23;;;6.88;;
22904;SDS011;11619;50.140;8.518;2024-01-16T14:34:15;15.45;;;7.07;;
22904;SDS011;11619;50.140;8.518;2024-01-16T14:36:42;12.07;;;7.00;;
22904;SDS011;11619;50.140;8.518;2024-01-16T14:39:09;9.68;;;6.85;;
22904;SDS011;11619;50.140;8.518;2024-01-16T14:41:44;13.38;;;7.47;;
22904;SDS011;11619;50.140;8.518;2024-01-16T14:44:12;14.00;;;7.57;;
22904;SDS011;11619;50.140;8.518;2024-01-16T14:46:42;14.02;;;6.97;;
22904;SDS011;11619;50.140;8.518;2024-01-16T14:49:16;14.55;;;6.85;;
22904;SDS011;11619;50.140;8.518;2024-01-16T14:51:42;12.35;;;7.18;;
22904;SDS011;11619;50.140;8.518;2024-01-16T14:54:09;10.57;;;6.82;;
22904;SDS011;11619;50.140;8.518;2024-01-16T14:56:35;9.32;;;6.50;;
22904;SDS011;11619;50.140;8.518;2024-01-16T14:59:02;15.65;;;7.05;;